This is the latest recevied weather packets stored in our database for station/object SQ5SUI-3. If no packets are shown the sender has not sent any weather packets the latest 10 day(s).
| Time | Temp. | Humidity | Pressure | Rain* | Wind** | Luminosity | Snow |
|---|---|---|---|---|---|---|---|
| 1777659921 | 15° C | 42% | 1000.6 hPa | 0 mm | - | - | - |
| 1777658122 | 16.11° C | 40% | 1000.9 hPa | 0 mm | - | - | - |
| 1777654521 | 18.89° C | 32% | 1001.1 hPa | 0 mm | - | - | - |
| 1777652720 | 18.33° C | 32% | 1000.6 hPa | 0 mm | - | - | - |
| 1777650922 | 19.44° C | 27% | 1000.7 hPa | 0 mm | - | - | - |
| 1777649120 | 20.56° C | 25% | 1000.4 hPa | 0 mm | - | - | - |
| 1777647321 | 20.56° C | 24% | 1000.2 hPa | 0 mm | - | - | - |
| 1777645522 | 21.11° C | 29% | 999.7 hPa | 0 mm | - | - | - |
| 1777643722 | 19.44° C | 32% | 999.3 hPa | 0 mm | - | - | - |
| 1777641920 | 20.56° C | 30% | 999 hPa | 0 mm | - | - | - |
| 1777638322 | 19.44° C | 31% | 998.1 hPa | 0 mm | - | - | - |
| 1777634721 | 17.78° C | 32% | 997.5 hPa | 0 mm | - | - | - |
| 1777632922 | 18.89° C | 31% | 997.6 hPa | 0 mm | - | - | - |
| 1777631120 | 18.89° C | 32% | 997.5 hPa | 0 mm | - | - | - |
| 1777629321 | 17.22° C | 29% | 997.2 hPa | 0 mm | - | - | - |
| 1777627521 | 17.78° C | 30% | 996.8 hPa | 0 mm | - | - | - |
| 1777625721 | 17.22° C | 28% | 996.8 hPa | 0 mm | - | - | - |
| 1777623920 | 16.67° C | 34% | 996.5 hPa | 0 mm | - | - | - |
| 1777622120 | 16.11° C | 38% | 996.4 hPa | 0 mm | - | - | - |
| 1777620322 | 14.44° C | 41% | 996.1 hPa | 0 mm | - | - | - |
| 1777618521 | 13.33° C | 42% | 996.1 hPa | 0 mm | - | - | - |
| 1777616720 | 12.22° C | 42% | 996 hPa | 0 mm | - | - | - |
| 1777614920 | 11.11° C | 43% | 996.2 hPa | 0 mm | - | - | - |
| 1777613120 | 10° C | 47% | 996 hPa | 0 mm | - | - | - |
| 1777611320 | 8.33° C | 51% | 995.9 hPa | 0 mm | - | - | - |
* Rain latest hour (hover to see other rain measurements)
** Current wind speed in m/s (hover to see current wind gust speed)